Antlers Park, Minnesota
Current Conditions -  °F | °C
As of 2:01 AM on Thursday 29 Jan 2015 (Local Time) from KLVN Reporting Station
Haze Haze  
Wind Chill: 19°   Ceiling: 700
Heat Index: 28°   Visibility: 3mi
Dew Point: 28°   Wind: 10mph
Humidity: 100%   Direction: 310°NW
Pressure: 29.89"   Gusts: 18mph
Location:  44.6349°N, 93.283°W
Report Text: KLVN 290801Z AUTO 31009G16KT 3SM BR OVC007 M02/M02 A2989 RMK AO2
Loading
Personal Weather Stations






























Interactive Weather Map New forecast layout! Learn more

10-Day Weather Forecast

Advertisements
Track Severe Weather on mobile